Time;durP1;ratioP1;P1;durP2;ratioP2;P2;SDS_P1;SDS_P2;PMS_P1;PMS_P2;Temp;Humidity;BMP_temperature;BMP_pressure;BME280_temperature;BME280_humidity;BME280_pressure;Samples;Min_cycle;Max_cycle;Signal;HPM_P1;HPM_P2
2021/01/25 00:01:52;;;;;;;;;;;;;;;16.75;37.33;98228.59;4391529;32;20303;-46
2021/01/25 00:04:18;;;;;;;;;;;;;;;16.82;37.19;98222.38;4396848;32;20076;-47
2021/01/25 00:06:43;;;;;;;;;;;;;;;16.70;37.47;98225.09;4404836;32;20006;-47
2021/01/25 00:09:09;;;;;;;;;;;;;;;16.68;37.44;98227.75;4399797;32;19985;-53
2021/01/25 00:11:35;;;;;;;;;;;;;;;16.75;37.33;98220.69;4399973;32;20510;-45
2021/01/25 00:14:01;;;;;;;;;;;;;;;16.77;37.26;98210.16;4400317;32;19950;-47
2021/01/25 00:16:27;;;;;;;;;;;;;;;16.75;37.28;98211.94;4403080;32;19958;-48
2021/01/25 00:18:53;;;;;;;;;;;;;;;16.70;37.36;98206.69;4408873;32;19954;-49
2021/01/25 00:21:19;;;;;;;;;;;;;;;16.69;37.43;98199.69;4410992;32;19959;-50
2021/01/25 00:23:45;;;;;;;;;;;;;;;16.68;37.41;98205.84;4403739;32;20638;-49
2021/01/25 00:26:11;;;;;;;;;;;;;;;16.67;37.45;98209.34;4402922;32;20002;-49
2021/01/25 00:28:37;;;;;;;;;;;;;;;16.52;37.68;98205.94;4402596;32;19990;-51
2021/01/25 00:31:02;;;;;;;;;;;;;;;16.55;37.62;98205.06;4403291;32;19954;-47
2021/01/25 00:33:28;;;;;;;;;;;;;;;16.66;37.46;98199.72;4390945;32;19986;-50
2021/01/25 00:35:54;;;;;;;;;;;;;;;16.68;37.28;98198.84;4391914;32;19950;-46
2021/01/25 00:38:20;;;;;;;;;;;;;;;16.64;37.45;98201.50;4401886;32;20340;-51
2021/01/25 00:40:46;;;;;;;;;;;;;;;16.65;37.41;98196.22;4403682;32;19972;-47
2021/01/25 00:43:12;;;;;;;;;;;;;;;16.68;37.31;98190.97;4402582;32;19950;-51
2021/01/25 00:45:38;;;;;;;;;;;;;;;16.63;37.44;98190.09;4402300;32;19966;-48
2021/01/25 00:48:04;;;;;;;;;;;;;;;16.64;37.44;98193.63;4404063;32;19950;-47
2021/01/25 00:50:29;;;;;;;;;;;;;;;16.74;37.22;98183.91;4401110;32;20370;-49
2021/01/25 00:52:55;;;;;;;;;;;;;;;16.79;37.09;98176.84;4403398;32;19951;-47
2021/01/25 00:55:21;;;;;;;;;;;;;;;16.76;37.19;98177.75;4402616;32;19955;-46
2021/01/25 00:57:47;;;;;;;;;;;;;;;16.82;37.02;98180.31;4408982;32;20345;-50
2021/01/25 01:00:13;;;;;;;;;;;;;;;16.71;37.24;98179.53;4416959;32;19969;-48
2021/01/25 01:02:39;;;;;;;;;;;;;;;16.68;37.34;98179.56;4405859;32;20314;-45
2021/01/25 01:05:05;;;;;;;;;;;;;;;16.68;37.23;98182.19;4402645;32;19938;-46
2021/01/25 01:07:31;;;;;;;;;;;;;;;16.68;37.29;98187.44;4402230;32;20271;-46
2021/01/25 01:09:57;;;;;;;;;;;;;;;16.78;37.05;98190.88;4402459;32;20000;-51
2021/01/25 01:12:23;;;;;;;;;;;;;;;16.82;36.95;98188.22;4401369;32;20041;-51
2021/01/25 01:14:48;;;;;;;;;;;;;;;16.70;37.17;98183.03;4402586;32;19978;-49
2021/01/25 01:17:14;;;;;;;;;;;;;;;16.71;37.16;98184.78;4403502;32;19955;-48
2021/01/25 01:19:40;;;;;;;;;;;;;;;16.80;36.96;98186.50;4401871;32;20537;-49
2021/01/25 01:22:06;;;;;;;;;;;;;;;16.73;37.14;98193.56;4402105;32;19943;-50
2021/01/25 01:24:32;;;;;;;;;;;;;;;16.71;37.14;98190.03;4402512;32;19939;-49
2021/01/25 01:26:58;;;;;;;;;;;;;;;16.68;37.19;98190.97;4403289;32;19992;-50
2021/01/25 01:29:24;;;;;;;;;;;;;;;16.71;37.17;98195.31;4416947;32;19962;-48
2021/01/25 01:31:50;;;;;;;;;;;;;;;16.72;37.10;98189.16;4413420;32;20022;-48
2021/01/25 01:34:15;;;;;;;;;;;;;;;16.62;37.38;98198.88;4402475;32;19987;-49
2021/01/25 01:36:42;;;;;;;;;;;;;;;16.70;37.13;98193.56;4402217;32;20379;-48
2021/01/25 01:39:07;;;;;;;;;;;;;;;16.67;37.20;98202.37;4393691;32;20013;-51
2021/01/25 01:41:33;;;;;;;;;;;;;;;16.74;37.08;98200.56;4386532;32;20393;-48
2021/01/25 01:43:59;;;;;;;;;;;;;;;16.77;36.99;98200.53;4402216;32;19951;-47
2021/01/25 01:46:25;;;;;;;;;;;;;;;16.73;37.10;98198.81;4400801;32;19954;-50
2021/01/25 01:48:51;;;;;;;;;;;;;;;16.70;37.18;98196.19;4401932;32;20290;-48
2021/01/25 01:51:17;;;;;;;;;;;;;;;16.62;37.35;98205.91;4401620;32;19990;-50
2021/01/25 01:53:43;;;;;;;;;;;;;;;16.67;37.23;98193.59;4402106;32;19969;-47
2021/01/25 01:56:08;;;;;;;;;;;;;;;16.63;37.30;98191.88;4400857;32;20003;-47
2021/01/25 01:58:35;;;;;;;;;;;;;;;16.74;37.06;98197.94;4400862;32;19955;-48
2021/01/25 02:01:00;;;;;;;;;;;;;;;16.72;37.03;98187.41;4402354;32;20015;-49
2021/01/25 02:03:26;;;;;;;;;;;;;;;16.72;37.09;98192.66;4401200;32;19959;-50
2021/01/25 02:05:52;;;;;;;;;;;;;;;16.74;37.02;98195.31;4401791;32;19947;-49
2021/01/25 02:08:18;;;;;;;;;;;;;;;16.65;37.24;98190.09;4401702;32;20010;-46
2021/01/25 02:10:44;;;;;;;;;;;;;;;16.67;37.20;98193.59;4389491;32;20340;-48
2021/01/25 02:13:10;;;;;;;;;;;;;;;16.72;37.13;98191.78;4385520;32;19970;-45
2021/01/25 02:15:36;;;;;;;;;;;;;;;16.55;37.39;98190.16;4393576;32;20786;-45
2021/01/25 02:18:02;;;;;;;;;;;;;;;16.55;37.39;98187.53;4395809;32;19951;-46
2021/01/25 02:20:28;;;;;;;;;;;;;;;16.55;37.41;98182.28;4402149;32;19950;-50
2021/01/25 02:22:54;;;;;;;;;;;;;;;16.59;37.31;98185.75;4397115;32;20000;-47
2021/01/25 02:25:20;;;;;;;;;;;;;;;16.48;37.50;98190.22;4394308;32;20030;-47
2021/01/25 02:27:46;;;;;;;;;;;;;;;16.53;37.42;98189.31;4394792;32;19962;-44
2021/01/25 02:30:12;;;;;;;;;;;;;;;16.54;37.49;98187.53;4393454;32;19996;-45
2021/01/25 02:32:38;;;;;;;;;;;;;;;16.60;37.29;98186.63;4396277;32;19958;-47
2021/01/25 02:35:04;;;;;;;;;;;;;;;16.66;37.16;98192.69;4393305;32;19955;-49
2021/01/25 02:37:30;;;;;;;;;;;;;;;16.66;37.11;98187.44;4394115;32;20371;-49
2021/01/25 02:39:56;;;;;;;;;;;;;;;16.69;37.05;98191.81;4393540;32;19985;-50
2021/01/25 02:42:22;;;;;;;;;;;;;;;16.67;37.07;98190.97;4391482;32;20009;-50
2021/01/25 02:44:48;;;;;;;;;;;;;;;16.68;37.04;98188.34;4399197;32;19998;-51
2021/01/25 02:47:14;;;;;;;;;;;;;;;16.58;37.24;98198.00;4394192;32;19973;-47
2021/01/25 02:49:40;;;;;;;;;;;;;;;16.57;37.27;98193.66;4394234;32;20010;-49
2021/01/25 02:52:06;;;;;;;;;;;;;;;16.61;37.19;98201.53;4394146;32;19953;-47
2021/01/25 02:54:32;;;;;;;;;;;;;;;16.62;37.21;98192.75;4394435;32;19954;-47
2021/01/25 02:56:57;;;;;;;;;;;;;;;16.61;37.19;98193.66;4389002;32;19951;-47
2021/01/25 02:59:23;;;;;;;;;;;;;;;16.55;37.33;98195.41;4395136;32;19951;-47
2021/01/25 03:01:49;;;;;;;;;;;;;;;16.52;37.39;98192.81;4395005;32;20335;-53
2021/01/25 03:04:15;;;;;;;;;;;;;;;16.50;37.43;98199.84;4394874;32;19988;-47
2021/01/25 03:06:41;;;;;;;;;;;;;;;16.47;37.46;98184.06;4394337;32;19965;-48
2021/01/25 03:09:07;;;;;;;;;;;;;;;16.51;37.48;98192.81;4395588;32;19974;-50
2021/01/25 03:11:33;;;;;;;;;;;;;;;16.52;37.40;98182.31;4390506;32;19995;-49
2021/01/25 03:13:59;;;;;;;;;;;;;;;16.50;37.51;98191.97;4396596;32;20324;-46
2021/01/25 03:16:25;;;;;;;;;;;;;;;16.54;37.39;98187.53;4392506;32;19966;-48
2021/01/25 03:18:51;;;;;;;;;;;;;;;16.58;37.27;98192.75;4393449;32;19992;-47
2021/01/25 03:21:17;;;;;;;;;;;;;;;16.56;37.29;98196.31;4394729;32;20308;-48
2021/01/25 03:23:42;;;;;;;;;;;;;;;16.47;37.49;98196.34;4395428;32;19964;-46
2021/01/25 03:26:09;;;;;;;;;;;;;;;16.52;37.38;98194.56;4393325;32;20561;-50
2021/01/25 03:28:34;;;;;;;;;;;;;;;16.47;37.46;98197.22;4393824;32;19961;-45
2021/01/25 03:31:00;;;;;;;;;;;;;;;16.50;37.48;98202.47;4394532;32;19939;-50
2021/01/25 03:33:26;;;;;;;;;;;;;;;16.48;37.44;98198.09;4391601;32;19963;-46
2021/01/25 03:35:52;;;;;;;;;;;;;;;16.50;37.43;98198.94;4395086;32;19950;-48
2021/01/25 03:38:18;;;;;;;;;;;;;;;16.48;37.46;98193.69;4392321;32;20345;-49
2021/01/25 03:40:44;;;;;;;;;;;;;;;16.48;37.42;98196.31;4392853;32;19979;-45
2021/01/25 03:43:10;;;;;;;;;;;;;;;16.43;37.55;98195.50;4394712;32;19964;-50
2021/01/25 03:45:36;;;;;;;;;;;;;;;16.50;37.40;98193.69;4394853;32;19951;-47
2021/01/25 03:48:02;;;;;;;;;;;;;;;16.47;37.44;98198.97;4387173;32;19959;-53
2021/01/25 03:50:28;;;;;;;;;;;;;;;16.46;37.46;98198.09;4397120;32;20071;-51
2021/01/25 03:52:54;;;;;;;;;;;;;;;16.54;37.30;98196.31;4401396;32;19938;-49
2021/01/25 03:55:20;;;;;;;;;;;;;;;16.50;37.42;98202.47;4401874;32;19988;-48
2021/01/25 03:57:46;;;;;;;;;;;;;;;16.41;37.56;98203.38;4400183;32;20357;-49
2021/01/25 04:00:11;;;;;;;;;;;;;;;16.43;37.53;98198.12;4400566;32;19950;-45
2021/01/25 04:02:37;;;;;;;;;;;;;;;16.37;37.70;98201.66;4402060;32;19974;-45
2021/01/25 04:05:03;;;;;;;;;;;;;;;16.33;37.79;98201.69;4400982;32;20354;-49
2021/01/25 04:07:29;;;;;;;;;;;;;;;16.36;37.67;98210.41;4401232;32;19988;-47
2021/01/25 04:09:55;;;;;;;;;;;;;;;16.30;37.68;98206.06;4401274;32;19942;-49
2021/01/25 04:12:22;;;;;;;;;;;;;;;16.37;37.60;98206.06;4399968;32;19980;-48
2021/01/25 04:14:48;;;;;;;;;;;;;;;16.38;37.56;98213.06;4409623;32;19981;-51
2021/01/25 04:17:14;;;;;;;;;;;;;;;16.37;37.64;98211.31;4400716;32;19958;-52
2021/01/25 04:19:40;;;;;;;;;;;;;;;16.35;37.64;98210.41;4400870;32;19942;-47
2021/01/25 04:22:05;;;;;;;;;;;;;;;16.35;37.58;98208.69;4400310;32;19963;-47
2021/01/25 04:24:31;;;;;;;;;;;;;;;16.35;37.63;98218.28;4401430;32;19938;-47
2021/01/25 04:26:57;;;;;;;;;;;;;;;16.39;37.55;98220.91;4400173;32;19980;-46
2021/01/25 04:29:23;;;;;;;;;;;;;;;16.44;37.40;98220.88;4401537;32;20049;-50
2021/01/25 04:31:49;;;;;;;;;;;;;;;16.41;37.53;98216.50;4401461;32;19988;-46
2021/01/25 04:34:15;;;;;;;;;;;;;;;16.41;37.52;98215.66;4400932;32;20014;-48
2021/01/25 04:36:41;;;;;;;;;;;;;;;16.42;37.56;98212.13;4401053;32;20376;-46
2021/01/25 04:39:07;;;;;;;;;;;;;;;16.42;37.52;98220.91;4400431;32;19954;-46
2021/01/25 04:41:32;;;;;;;;;;;;;;;16.36;37.61;98217.41;4399869;32;19950;-45
2021/01/25 04:43:58;;;;;;;;;;;;;;;16.40;37.53;98220.00;4392688;32;20283;-48
2021/01/25 04:46:24;;;;;;;;;;;;;;;16.36;37.69;98214.78;4398070;32;19977;-51
2021/01/25 04:48:50;;;;;;;;;;;;;;;16.36;37.60;98220.94;4399430;32;19969;-46
2021/01/25 04:51:16;;;;;;;;;;;;;;;16.39;37.61;98220.03;4390543;32;19954;-46
2021/01/25 04:53:42;;;;;;;;;;;;;;;16.40;37.64;98227.91;4400041;32;19969;-48
2021/01/25 04:56:08;;;;;;;;;;;;;;;16.43;37.44;98230.53;4396574;32;20408;-49
2021/01/25 04:58:34;;;;;;;;;;;;;;;16.40;37.60;98222.66;4399689;32;19969;-46
2021/01/25 05:00:59;;;;;;;;;;;;;;;16.29;37.86;98222.72;4401021;32;19969;-46
2021/01/25 05:03:26;;;;;;;;;;;;;;;16.38;37.64;98223.56;4403084;32;19989;-51
2021/01/25 05:05:51;;;;;;;;;;;;;;;16.28;37.84;98228.84;4401083;32;20256;-48
2021/01/25 05:08:17;;;;;;;;;;;;;;;16.36;37.63;98227.91;4402310;32;19969;-46
2021/01/25 05:10:43;;;;;;;;;;;;;;;16.27;37.87;98227.09;4401805;32;19968;-50
2021/01/25 05:13:09;;;;;;;;;;;;;;;16.26;37.87;98230.63;4405712;32;19988;-47
2021/01/25 05:15:35;;;;;;;;;;;;;;;16.26;37.86;98230.63;4402250;32;19965;-45
2021/01/25 05:18:01;;;;;;;;;;;;;;;16.35;37.72;98234.06;4402734;32;20369;-46
2021/01/25 05:20:27;;;;;;;;;;;;;;;16.40;37.57;98233.16;4401587;32;20347;-49
2021/01/25 05:22:53;;;;;;;;;;;;;;;16.42;37.55;98235.78;4402691;32;20047;-47
2021/01/25 05:25:19;;;;;;;;;;;;;;;16.40;37.60;98237.56;4402145;32;19954;-51
2021/01/25 05:27:44;;;;;;;;;;;;;;;16.35;37.74;98236.69;4401749;32;20353;-49
2021/01/25 05:30:11;;;;;;;;;;;;;;;16.35;37.69;98239.31;4402325;32;19983;-50
2021/01/25 05:32:36;;;;;;;;;;;;;;;16.37;37.64;98242.84;4403365;32;19957;-52
2021/01/25 05:35:02;;;;;;;;;;;;;;;16.29;37.91;98246.34;4402762;32;20000;-49
2021/01/25 05:37:28;;;;;;;;;;;;;;;16.35;37.73;98250.69;4402844;32;20046;-50
2021/01/25 05:39:54;;;;;;;;;;;;;;;16.36;37.65;98243.69;4403060;32;19946;-48
2021/01/25 05:42:20;;;;;;;;;;;;;;;16.40;37.57;98237.56;4400909;32;19946;-48
2021/01/25 05:44:46;;;;;;;;;;;;;;;16.34;37.71;98237.56;4408713;32;19970;-52
2021/01/25 05:47:12;;;;;;;;;;;;;;;16.38;37.50;98244.56;4396176;32;19963;-47
2021/01/25 05:49:38;;;;;;;;;;;;;;;16.29;37.67;98246.34;4393899;32;19950;-50
2021/01/25 05:52:04;;;;;;;;;;;;;;;16.27;37.74;98242.88;4395629;32;19955;-49
2021/01/25 05:54:30;;;;;;;;;;;;;;;16.28;37.75;98241.97;4396786;32;19955;-51
2021/01/25 05:56:56;;;;;;;;;;;;;;;16.29;37.77;98243.72;4395499;32;19978;-47
2021/01/25 05:59:22;;;;;;;;;;;;;;;16.35;37.60;98239.31;4393693;32;19963;-46
2021/01/25 06:01:48;;;;;;;;;;;;;;;16.29;37.76;98248.97;4398760;32;19994;-49
2021/01/25 06:04:13;;;;;;;;;;;;;;;16.28;37.95;98249.88;4394758;32;20358;-48
2021/01/25 06:06:39;;;;;;;;;;;;;;;16.22;38.12;98251.66;4393981;32;19987;-48
2021/01/25 06:09:05;;;;;;;;;;;;;;;16.12;38.22;98251.69;4394455;32;19970;-48
2021/01/25 06:11:32;;;;;;;;;;;;;;;16.11;38.25;98256.91;4396641;32;19942;-52
2021/01/25 06:13:59;;;;;;;;;;;;;;;16.07;38.37;98261.34;4399781;32;19963;-47
2021/01/25 06:16:25;;;;;;;;;;;;;;;16.11;38.35;98259.53;4396897;32;19942;-49
2021/01/25 06:18:51;;;;;;;;;;;;;;;16.07;38.34;98256.09;4393097;32;19980;-49
2021/01/25 06:21:16;;;;;;;;;;;;;;;16.12;38.23;98261.31;4395051;32;19974;-46
2021/01/25 06:23:42;;;;;;;;;;;;;;;16.12;38.31;98263.94;4382632;32;19953;-47
2021/01/25 06:26:08;;;;;;;;;;;;;;;16.14;38.26;98262.19;4394111;32;19962;-46
2021/01/25 06:28:34;;;;;;;;;;;;;;;16.14;38.20;98270.06;4394484;32;19951;-49
2021/01/25 06:31:00;;;;;;;;;;;;;;;16.11;38.34;98273.56;4379847;32;20351;-47
2021/01/25 06:33:26;;;;;;;;;;;;;;;16.14;38.20;98276.16;4396818;32;19994;-48
2021/01/25 06:35:52;;;;;;;;;;;;;;;16.20;38.11;98277.03;4393912;32;19970;-46
2021/01/25 06:38:18;;;;;;;;;;;;;;;16.25;38.02;98286.66;4396048;32;20020;-46
2021/01/25 06:40:44;;;;;;;;;;;;;;;16.29;37.84;98282.22;4392802;32;19983;-47
2021/01/25 06:43:09;;;;;;;;;;;;;;;16.16;38.12;98282.28;4399066;32;20005;-48
2021/01/25 06:45:35;;;;;;;;;;;;;;;16.11;38.20;98288.44;4396564;32;19965;-49
2021/01/25 06:48:01;;;;;;;;;;;;;;;16.11;38.20;98288.44;4399228;32;19962;-45
2021/01/25 06:50:27;;;;;;;;;;;;;;;16.09;38.28;98298.06;4396873;32;20018;-51
2021/01/25 06:52:53;;;;;;;;;;;;;;;16.07;38.37;98294.59;4398156;32;20033;-52
2021/01/25 06:55:19;;;;;;;;;;;;;;;16.13;38.14;98305.94;4393894;32;19969;-49
2021/01/25 06:57:45;;;;;;;;;;;;;;;16.11;38.17;98299.81;4394169;32;19955;-52
2021/01/25 07:00:11;;;;;;;;;;;;;;;16.08;38.27;98301.56;4392783;32;19946;-51
2021/01/25 07:02:37;;;;;;;;;;;;;;;16.22;38.00;98309.41;4395653;32;19997;-46
2021/01/25 07:05:03;;;;;;;;;;;;;;;16.28;37.83;98314.63;4395214;32;19949;-47
2021/01/25 07:07:29;;;;;;;;;;;;;;;16.20;38.01;98319.91;4394817;32;19996;-49
2021/01/25 07:09:57;;;;;;;;;;;;;;;16.22;38.03;98323.41;4394611;32;19947;-47
2021/01/25 07:12:23;;;;;;;;;;;;;;;16.10;38.27;98323.44;4396367;32;20030;-48
2021/01/25 07:14:48;;;;;;;;;;;;;;;16.00;38.52;98331.37;4398563;32;20422;-49
2021/01/25 07:17:14;;;;;;;;;;;;;;;16.04;38.37;98326.09;4394586;32;20034;-54
2021/01/25 07:19:40;;;;;;;;;;;;;;;15.99;38.53;98337.50;4397199;32;19981;-49
2021/01/25 07:22:06;;;;;;;;;;;;;;;16.11;38.15;98339.22;4397905;32;20308;-48
2021/01/25 07:24:32;;;;;;;;;;;;;;;16.10;38.22;98340.09;4399896;32;19970;-48
2021/01/25 07:26:58;;;;;;;;;;;;;;;16.06;38.29;98334.84;4401049;32;19970;-52
2021/01/25 07:29:25;;;;;;;;;;;;;;;16.10;38.29;98344.44;4392647;32;19963;-55
2021/01/25 07:31:51;;;;;;;;;;;;;;;16.10;38.18;98342.72;4385215;32;19950;-51
2021/01/25 07:34:17;;;;;;;;;;;;;;;16.12;38.11;98342.72;4396764;32;20038;-53
2021/01/25 07:36:43;;;;;;;;;;;;;;;16.08;38.22;98351.47;4388841;32;19954;-49
2021/01/25 07:39:09;;;;;;;;;;;;;;;16.13;38.07;98355.81;4396929;32;19978;-52
2021/01/25 07:41:35;;;;;;;;;;;;;;;16.22;37.94;98349.66;4400656;32;19969;-51
2021/01/25 07:44:01;;;;;;;;;;;;;;;16.16;38.07;98360.22;4399524;32;19985;-47
2021/01/25 07:46:28;;;;;;;;;;;;;;;16.20;38.00;98351.44;4395339;32;19982;-51
2021/01/25 07:48:54;;;;;;;;;;;;;;;16.11;38.22;98368.09;4391212;32;19951;-48
2021/01/25 07:51:20;;;;;;;;;;;;;;;16.13;38.15;98370.72;4398374;32;19986;-48
2021/01/25 07:53:46;;;;;;;;;;;;;;;16.14;38.11;98372.47;4398709;32;19963;-49
2021/01/25 07:56:12;;;;;;;;;;;;;;;16.10;38.27;98375.97;4397214;32;19943;-50
2021/01/25 07:58:38;;;;;;;;;;;;;;;16.00;38.54;98370.75;4397870;32;19951;-52
2021/01/25 08:01:04;;;;;;;;;;;;;;;16.06;38.40;98380.38;4399198;32;20029;-52
2021/01/25 08:03:30;;;;;;;;;;;;;;;16.05;38.48;98377.75;4400484;32;19955;-48
2021/01/25 08:05:56;;;;;;;;;;;;;;;16.01;38.61;98380.38;4401478;32;19984;-51
2021/01/25 08:08:22;;;;;;;;;;;;;;;16.04;38.63;98378.63;4398743;32;20334;-50
2021/01/25 08:10:48;;;;;;;;;;;;;;;16.09;38.51;98388.22;4399485;32;20045;-54
2021/01/25 08:13:17;;;;;;;;;;;;;;;16.10;38.42;98389.09;4399356;32;19989;-51
2021/01/25 08:15:43;;;;;;;;;;;;;;;16.08;38.49;98393.47;4400570;32;20050;-51
2021/01/25 08:18:09;;;;;;;;;;;;;;;16.16;38.32;98399.59;4397305;32;19974;-49
2021/01/25 08:20:35;;;;;;;;;;;;;;;16.05;38.52;98402.25;4400188;32;19954;-50
2021/01/25 08:23:01;;;;;;;;;;;;;;;16.13;38.41;98410.13;4399532;32;19942;-49
2021/01/25 08:25:27;;;;;;;;;;;;;;;16.15;38.34;98410.97;4399824;32;19969;-48
2021/01/25 08:27:53;;;;;;;;;;;;;;;16.21;38.09;98405.72;4399404;32;19965;-50
2021/01/25 08:30:22;;;;;;;;;;;;;;;16.22;38.14;98417.97;4398928;32;20354;-51
2021/01/25 08:32:49;;;;;;;;;;;;;;;16.22;38.04;98417.97;4398157;32;19984;-53
2021/01/25 08:35:15;;;;;;;;;;;;;;;16.23;38.01;98419.72;4391657;32;20010;-53
2021/01/25 08:37:41;;;;;;;;;;;;;;;16.23;38.04;98419.72;4392913;32;19960;-51
2021/01/25 08:40:07;;;;;;;;;;;;;;;16.19;38.11;98422.38;4393401;32;19974;-50
2021/01/25 08:42:33;;;;;;;;;;;;;;;16.15;38.21;98429.38;4386691;32;19959;-49
2021/01/25 08:44:59;;;;;;;;;;;;;;;16.21;38.15;98426.72;4402235;32;20333;-55
2021/01/25 08:47:25;;;;;;;;;;;;;;;16.16;38.24;98425.88;4403157;32;19954;-52
2021/01/25 08:49:51;;;;;;;;;;;;;;;16.14;38.32;98430.25;4400967;32;19958;-47
2021/01/25 08:52:17;;;;;;;;;;;;;;;16.15;38.27;98429.38;4395742;32;20354;-51
2021/01/25 08:54:43;;;;;;;;;;;;;;;16.13;38.31;98431.13;4392645;32;20021;-53
2021/01/25 08:57:09;;;;;;;;;;;;;;;16.13;38.25;98437.22;4402937;32;19947;-46
2021/01/25 08:59:36;;;;;;;;;;;;;;;16.28;37.88;98438.97;4402487;32;19969;-50
2021/01/25 09:02:02;;;;;;;;;;;;;;;16.27;37.95;98447.75;4400334;32;19951;-55
2021/01/25 09:04:28;;;;;;;;;;;;;;;16.28;37.87;98448.59;4397721;32;19954;-53
2021/01/25 09:06:54;;;;;;;;;;;;;;;16.30;37.82;98447.72;4395122;32;19962;-51
2021/01/25 09:09:20;;;;;;;;;;;;;;;16.28;37.91;98460.00;4395549;32;19950;-46
2021/01/25 09:11:46;;;;;;;;;;;;;;;16.26;37.97;98455.59;4403337;32;19962;-47
2021/01/25 09:14:12;;;;;;;;;;;;;;;16.26;37.95;98463.47;4402083;32;19954;-50
2021/01/25 09:16:38;;;;;;;;;;;;;;;16.32;37.86;98463.50;4403807;32;19950;-50
2021/01/25 09:19:04;;;;;;;;;;;;;;;16.32;37.86;98470.47;4398163;32;20302;-53
2021/01/25 09:21:29;;;;;;;;;;;;;;;16.30;37.90;98473.12;4402054;32;19938;-49
2021/01/25 09:23:55;;;;;;;;;;;;;;;16.31;37.88;98474.88;4402573;32;19977;-54
2021/01/25 09:26:21;;;;;;;;;;;;;;;16.40;37.71;98479.25;4401163;32;20026;-53
2021/01/25 09:28:47;;;;;;;;;;;;;;;16.44;37.60;98487.13;4401448;32;19994;-50
2021/01/25 09:31:16;;;;;;;;;;;;;;;16.50;37.51;98490.59;4403155;32;19965;-51
2021/01/25 09:33:42;;;;;;;;;;;;;;;16.37;37.77;98492.37;4403069;32;19954;-53
2021/01/25 09:36:08;;;;;;;;;;;;;;;16.40;37.76;98492.37;4402306;32;19978;-52
2021/01/25 09:38:34;;;;;;;;;;;;;;;16.43;37.76;98503.75;4399204;32;19974;-54
2021/01/25 09:41:00;;;;;;;;;;;;;;;16.50;37.60;98504.63;4398279;32;19962;-53
2021/01/25 09:43:25;;;;;;;;;;;;;;;16.48;37.62;98508.13;4400617;32;19963;-51
2021/01/25 09:45:51;;;;;;;;;;;;;;;16.42;37.80;98514.25;4403448;32;19955;-53
2021/01/25 09:48:17;;;;;;;;;;;;;;;16.38;37.90;98513.38;4401767;32;20024;-53
2021/01/25 09:50:47;;;;;;;;;;;;;;;16.43;37.84;98516.00;4399476;32;20014;-49
2021/01/25 09:53:13;;;;;;;;;;;;;;;16.52;37.68;98520.38;4398377;32;20291;-53
2021/01/25 09:55:39;;;;;;;;;;;;;;;16.60;37.54;98520.34;4394170;32;20048;-49
2021/01/25 09:58:05;;;;;;;;;;;;;;;16.57;37.56;98527.38;4387271;32;19989;-50
2021/01/25 10:00:31;;;;;;;;;;;;;;;16.58;37.60;98529.13;4392387;32;19959;-53
2021/01/25 10:02:57;;;;;;;;;;;;;;;16.57;37.66;98534.41;4402571;32;19985;-50
2021/01/25 10:05:23;;;;;;;;;;;;;;;16.67;37.46;98537.87;4400732;32;19958;-50
2021/01/25 10:07:49;;;;;;;;;;;;;;;16.66;37.54;98544.00;4387090;32;19951;-47
2021/01/25 10:10:15;;;;;;;;;;;;;;;16.63;37.59;98546.66;4388567;32;19962;-54
2021/01/25 10:12:41;;;;;;;;;;;;;;;16.55;37.73;98554.56;4401607;32;20001;-48
2021/01/25 10:15:07;;;;;;;;;;;;;;;16.50;37.86;98561.53;4385788;32;19938;-52
2021/01/25 10:17:34;;;;;;;;;;;;;;;16.42;38.01;98564.19;4400731;32;19970;-51
2021/01/25 10:20:00;;;;;;;;;;;;;;;16.39;38.10;98562.41;4401076;32;20287;-53
2021/01/25 10:22:26;;;;;;;;;;;;;;;16.49;37.96;98568.56;4386033;32;19958;-56
2021/01/25 10:24:52;;;;;;;;;;;;;;;16.53;37.84;98569.41;4386548;32;19974;-52
2021/01/25 10:27:18;;;;;;;;;;;;;;;16.57;37.78;98569.41;4400141;32;20023;-53
2021/01/25 10:29:44;;;;;;;;;;;;;;;16.68;37.57;98568.53;4402127;32;20004;-49
2021/01/25 10:32:10;;;;;;;;;;;;;;;16.71;37.49;98576.41;4402094;32;19954;-54
2021/01/25 10:34:36;;;;;;;;;;;;;;;16.72;37.46;98579.06;4401570;32;19973;-48
2021/01/25 10:37:02;;;;;;;;;;;;;;;16.70;37.51;98578.19;4400367;32;19950;-50
2021/01/25 10:39:28;;;;;;;;;;;;;;;16.68;37.47;98584.31;4400067;32;19970;-48
2021/01/25 10:41:54;;;;;;;;;;;;;;;16.72;37.32;98581.69;4400309;32;19974;-55
2021/01/25 10:44:19;;;;;;;;;;;;;;;16.71;37.34;98593.06;4411519;32;20335;-53
2021/01/25 10:46:45;;;;;;;;;;;;;;;16.73;37.32;98593.09;4409269;32;19967;-55
2021/01/25 10:49:11;;;;;;;;;;;;;;;16.78;37.27;98603.56;4399997;32;19958;-51
2021/01/25 10:51:37;;;;;;;;;;;;;;;16.77;37.27;98607.97;4401796;32;19998;-55
2021/01/25 10:54:03;;;;;;;;;;;;;;;16.77;37.29;98607.97;4401951;32;19959;-52
2021/01/25 10:56:29;;;;;;;;;;;;;;;16.79;37.30;98608.84;4396177;32;20351;-50
2021/01/25 10:58:55;;;;;;;;;;;;;;;16.81;37.27;98612.34;4400474;32;19958;-55
2021/01/25 11:01:21;;;;;;;;;;;;;;;16.82;37.29;98608.81;4401558;32;20315;-53
2021/01/25 11:03:47;;;;;;;;;;;;;;;16.85;37.32;98615.84;4397948;32;19958;-54
2021/01/25 11:06:12;;;;;;;;;;;;;;;16.86;37.27;98618.47;4396304;32;19970;-55
2021/01/25 11:08:38;;;;;;;;;;;;;;;16.85;37.29;98624.62;4399659;32;20646;-53
2021/01/25 11:11:04;;;;;;;;;;;;;;;16.88;37.33;98620.22;4399728;32;19994;-55
2021/01/25 11:13:30;;;;;;;;;;;;;;;16.88;37.27;98622.84;4403481;32;19954;-50
2021/01/25 11:15:56;;;;;;;;;;;;;;;16.89;37.36;98619.34;4415829;32;19950;-53
2021/01/25 11:18:23;;;;;;;;;;;;;;;16.89;37.38;98624.59;4401198;32;20332;-51
2021/01/25 11:20:49;;;;;;;;;;;;;;;16.89;37.31;98621.97;4399507;32;19954;-52
2021/01/25 11:23:15;;;;;;;;;;;;;;;16.91;37.30;98625.47;4400082;32;20000;-52
2021/01/25 11:25:41;;;;;;;;;;;;;;;16.90;37.34;98632.47;4397795;32;19981;-56
2021/01/25 11:28:07;;;;;;;;;;;;;;;16.91;37.30;98630.72;4394269;32;19958;-53
2021/01/25 11:30:32;;;;;;;;;;;;;;;16.89;37.39;98637.75;4385783;32;19947;-54
2021/01/25 11:32:58;;;;;;;;;;;;;;;16.86;37.45;98642.13;4397542;32;19988;-53
2021/01/25 11:35:25;;;;;;;;;;;;;;;16.82;37.52;98645.63;4400741;32;20518;-52
2021/01/25 11:37:51;;;;;;;;;;;;;;;16.86;37.37;98647.41;4401120;32;19972;-51
2021/01/25 11:40:16;;;;;;;;;;;;;;;16.84;37.43;98649.12;4398418;32;19973;-52
2021/01/25 11:42:42;;;;;;;;;;;;;;;16.88;37.29;98650.00;4398665;32;20004;-50
2021/01/25 11:45:08;;;;;;;;;;;;;;;16.85;37.36;98650.03;4399075;32;19961;-53
2021/01/25 11:47:34;;;;;;;;;;;;;;;16.81;37.29;98643.87;4398310;32;19950;-54
2021/01/25 11:50:00;;;;;;;;;;;;;;;16.82;37.41;98656.16;4397698;32;19950;-53
2021/01/25 11:52:26;;;;;;;;;;;;;;;16.83;37.44;98657.88;4397741;32;19963;-56
2021/01/25 11:54:52;;;;;;;;;;;;;;;16.68;37.87;98657.91;4400214;32;20279;-52
2021/01/25 11:57:18;;;;;;;;;;;;;;;16.79;37.62;98656.16;4400062;32;20001;-52
2021/01/25 11:59:46;;;;;;;;;;;;;;;16.86;37.42;98663.16;4399133;32;19995;-54
2021/01/25 12:02:12;;;;;;;;;;;;;;;16.91;37.37;98670.16;4398779;32;19955;-55
2021/01/25 12:04:37;;;;;;;;;;;;;;;16.89;37.42;98666.66;4400720;32;19946;-54
2021/01/25 12:07:03;;;;;;;;;;;;;;;16.86;37.49;98662.28;4400491;32;19969;-55
2021/01/25 12:09:30;;;;;;;;;;;;;;;16.90;37.32;98660.53;4400253;32;19943;-53
2021/01/25 12:11:56;;;;;;;;;;;;;;;16.90;37.33;98665.78;4402983;32;19976;-52
2021/01/25 12:14:22;;;;;;;;;;;;;;;16.88;37.28;98662.28;4403370;32;21452;-50
2021/01/25 12:16:48;;;;;;;;;;;;;;;16.92;37.28;98664.94;4402518;32;20379;-52
2021/01/25 12:19:13;;;;;;;;;;;;;;;16.93;37.22;98656.16;4402592;32;19984;-52
2021/01/25 12:21:39;;;;;;;;;;;;;;;16.93;37.25;98673.66;4403116;32;19950;-48
2021/01/25 12:24:05;;;;;;;;;;;;;;;16.93;37.24;98668.41;4393490;32;19954;-53
2021/01/25 12:26:31;;;;;;;;;;;;;;;16.93;37.18;98679.81;4404447;32;20021;-53
2021/01/25 12:28:57;;;;;;;;;;;;;;;16.96;37.11;98689.44;4397961;32;20002;-52
2021/01/25 12:31:25;;;;;;;;;;;;;;;16.92;37.21;98687.69;4394356;32;19989;-47
2021/01/25 12:33:51;;;;;;;;;;;;;;;16.91;37.23;98697.31;4399841;32;19986;-51
2021/01/25 12:36:17;;;;;;;;;;;;;;;16.95;37.27;98695.56;4395897;32;19951;-52
2021/01/25 12:38:43;;;;;;;;;;;;;;;16.97;37.27;98691.19;4396995;32;20047;-50
2021/01/25 12:41:09;;;;;;;;;;;;;;;16.99;37.32;98695.63;4395303;32;20426;-53